LICA/SUF METAR and TAF weather

Enter ICAO airport designator
Station Type Date Time Source
LICA METAR 2022/01/29 11:20 UTC NOAA

LICA 291120Z AUTO 32014G28KT 280V010 9999 BKN069/// 12/M05 Q1024


Station Type Date Time Source
LICA Decoded METAR 2022/01/29 11:20 UTC NOAA

Lamezia Terme, Italy (LICA) 38-54N 016-15E
Jan 29, 2022 - 06:20 AM EST / 2022.01.29 1120 UTC
Wind: from the NW (320 degrees) at 16 MPH (14 KT) gusting to 32 MPH (28 KT) (direction variable):0
Visibility: greater than 7 mile(s):0
Sky conditions: mostly cloudy
Temperature: 53 F (12 C)
Dew Point: 23 F (-5 C)
Relative Humidity: 30%
Pressure (altimeter): 30.24 in. Hg (1024 hPa)
ob: LICA 291120Z AUTO 32014G28KT 280V010 9999 BKN069/// 12/M05 Q1024
cycle: 11

Station Type Date Time Source
LICA TAF 2022/01/29 12:21 UTC NOAA

TAF LICA 291100Z 2912/3012 30015KT 9999 FEW040

Example: see airport list